Time;durP1;ratioP1;P1;durP2;ratioP2;P2;SDS_P1;SDS_P2;PMS_P1;PMS_P2;Temp;Humidity;BMP_temperature;BMP_pressure;BME280_temperature;BME280_humidity;BME280_pressure;Samples;Min_cycle;Max_cycle;Signal;HPM_P1;HPM_P2
2022/07/13 05:56:39;;;;;;;3.85;1.52;;;;;;;22.07;37.93;100222.72;4476400;26;36167;-71
2022/07/13 05:59:07;;;;;;;5.18;1.45;;;;;;;22.25;37.04;100217.47;4440796;32;33935;-71
2022/07/13 06:01:35;;;;;;;6.10;1.87;;;;;;;22.17;37.18;100217.13;4441636;32;33360;-71
2022/07/13 06:04:03;;;;;;;2.50;1.20;;;;;;;22.19;36.52;100215.75;4441163;32;34117;-71
2022/07/13 06:06:30;;;;;;;4.12;1.40;;;;;;;22.33;36.73;100213.31;4455024;32;34428;-71
2022/07/13 06:08:58;;;;;;;3.67;1.37;;;;;;;22.51;36.42;100214.78;4441256;32;33853;-71
2022/07/13 06:11:26;;;;;;;2.65;1.00;;;;;;;22.44;35.62;100217.81;4441264;32;33375;-71
2022/07/13 06:13:56;;;;;;;3.03;1.48;;;;;;;22.59;35.35;100208.62;4441114;32;33831;-71
2022/07/13 06:16:23;;;;;;;2.90;1.10;;;;;;;22.43;35.32;100216.13;4441467;32;35321;-70
2022/07/13 06:18:51;;;;;;;3.15;1.20;;;;;;;22.26;35.37;100215.50;4441189;32;34135;-71
2022/07/13 06:21:19;;;;;;;3.60;1.35;;;;;;;22.56;35.61;100210.03;4428305;32;32532;-71
2022/07/13 06:23:46;;;;;;;3.00;1.27;;;;;;;22.68;35.63;100216.22;4428727;32;34628;-71
2022/07/13 06:26:14;;;;;;;3.53;1.42;;;;;;;23.20;35.05;100206.78;4454889;32;33927;-71
2022/07/13 06:28:43;;;;;;;3.87;1.50;;;;;;;23.07;35.65;100215.75;4424929;32;33919;-71
2022/07/13 06:31:24;;;;;;;4.78;1.45;;;;;;;23.24;35.30;100209.87;4428795;32;33421;-72
2022/07/13 06:33:52;;;;;;;3.20;1.27;;;;;;;23.47;34.84;100217.69;4458491;32;33769;-71
2022/07/13 06:36:20;;;;;;;3.45;1.50;;;;;;;23.61;34.46;100204.81;4443483;32;33700;-72
2022/07/13 06:38:49;;;;;;;5.20;1.50;;;;;;;23.64;34.60;100206.22;4456526;32;34459;-72
2022/07/13 06:41:20;;;;;;;4.22;1.05;;;;;;;23.56;34.94;100215.19;4457026;32;33090;-72
2022/07/13 06:43:48;;;;;;;4.53;1.80;;;;;;;23.74;34.47;100214.59;4456626;32;33765;-71
2022/07/13 06:46:15;;;;;;;2.83;1.20;;;;;;;23.79;34.38;100203.37;4443641;32;33990;-71
2022/07/13 06:48:55;;;;;;;4.47;1.37;;;;;;;23.97;33.88;100207.56;4470386;32;33291;-71
2022/07/13 06:51:23;;;;;;;3.75;1.20;;;;;;;23.84;34.16;100214.59;4456308;32;34136;-71
2022/07/13 06:53:50;;;;;;;2.92;1.20;;;;;;;23.65;34.84;100219.94;4456559;32;33928;-71
2022/07/13 06:56:18;;;;;;;3.72;1.35;;;;;;;23.56;34.58;100223.59;4442968;32;32654;-71
2022/07/13 06:58:46;;;;;;;2.25;1.10;;;;;;;23.87;33.77;100218.78;4443333;32;34145;-72
2022/07/13 07:01:13;;;;;;;3.75;1.23;;;;;;;23.96;33.61;100231.09;4444041;32;33197;-72
2022/07/13 07:03:41;;;;;;;3.28;1.20;;;;;;;23.92;33.78;100222.41;4456523;32;34357;-72
2022/07/13 07:06:09;;;;;;;2.58;1.08;;;;;;;24.47;32.97;100223.37;4443412;32;33820;-72
2022/07/13 07:08:36;;;;;;;4.50;1.30;;;;;;;24.41;33.24;100212.44;4456349;32;34521;-72
2022/07/13 07:11:06;;;;;;;4.97;1.30;;;;;;;24.38;33.32;100213.84;4456579;32;33096;-73
2022/07/13 07:13:34;;;;;;;3.20;0.98;;;;;;;24.39;34.01;100212.72;4443299;32;33668;-72
2022/07/13 07:16:01;;;;;;;3.17;1.30;;;;;;;24.50;33.26;100211.56;4443697;32;33038;-72
2022/07/13 07:18:46;;;;;;;3.25;1.30;;;;;;;24.85;32.48;100220.88;4456437;32;32366;-71
2022/07/13 07:21:56;;;;;;;2.45;1.10;;;;;;;24.65;32.60;100210.66;4470502;32;33218;-72
2022/07/13 07:24:52;;;;;;;5.55;1.20;;;;;;;24.74;32.86;100217.31;4458227;32;34783;-72
2022/07/13 07:27:51;;;;;;;2.65;1.25;;;;;;;24.71;32.41;100214.22;4458554;32;34525;-72
2022/07/13 07:30:42;;;;;;;5.18;1.25;;;;;;;24.80;32.34;100201.25;4444490;32;32537;-72
2022/07/13 07:33:29;;;;;;;2.80;1.10;;;;;;;24.96;32.13;100200.06;4442377;32;31795;-72
2022/07/13 07:36:16;;;;;;;4.07;1.08;;;;;;;24.94;32.20;100191.06;4470436;32;34038;-72
2022/07/13 07:39:06;;;;;;;4.82;1.10;;;;;;;25.17;32.13;100187.56;4453809;32;34422;-72
2022/07/13 07:41:48;;;;;;;5.65;1.30;;;;;;;25.44;31.96;100189.81;4425350;32;33896;-72
2022/07/13 07:44:37;;;;;;;3.22;1.27;;;;;;;25.64;31.80;100183.19;4436676;32;34391;-72
2022/07/13 07:47:23;;;;;;;5.43;1.37;;;;;;;25.53;31.43;100179.63;4424281;32;32232;-72
2022/07/13 07:50:19;;;;;;;2.55;1.17;;;;;;;25.85;31.39;100183.81;4427181;32;35182;-73
2022/07/13 07:53:10;;;;;;;2.92;1.25;;;;;;;25.65;31.31;100181.22;4439201;32;34144;-72
2022/07/13 07:56:01;;;;;;;4.50;1.05;;;;;;;25.94;30.95;100196.09;4417361;32;31910;-73
2022/07/13 07:58:53;;;;;;;4.93;1.30;;;;;;;25.85;30.92;100187.47;4426734;32;34594;-72
2022/07/13 08:01:45;;;;;;;5.32;1.40;;;;;;;25.86;30.78;100194.78;4425046;32;34060;-73
2022/07/13 08:04:30;;;;;;;4.30;1.20;;;;;;;26.40;29.61;100193.56;4426200;32;34147;-73
2022/07/13 08:07:17;;;;;;;5.07;1.20;;;;;;;26.31;30.21;100172.87;4438868;32;33048;-72
2022/07/13 08:10:05;;;;;;;4.65;1.30;;;;;;;26.35;30.46;100185.19;4438986;32;34337;-72
2022/07/13 08:13:00;;;;;;;2.72;1.20;;;;;;;26.28;30.52;100181.88;4438858;32;35070;-72
2022/07/13 08:15:28;;;;;;;4.15;1.08;;;;;;;26.61;29.89;100170.78;4425463;32;33508;-73
2022/07/13 08:17:56;;;;;;;1.98;1.20;;;;;;;26.62;30.72;100172.47;4412431;32;31751;-72
2022/07/13 08:20:24;;;;;;;2.00;1.02;;;;;;;26.78;29.74;100171.91;4425087;32;33449;-72
2022/07/13 08:22:52;;;;;;;3.90;1.52;;;;;;;26.84;31.44;100169.84;4412258;32;33780;-73
2022/07/13 08:25:21;;;;;;;2.50;1.00;;;;;;;26.96;30.63;100161.81;4438369;32;33852;-73
2022/07/13 08:27:49;;;;;;;2.53;1.05;;;;;;;27.30;29.51;100169.94;4425305;32;33405;-73
2022/07/13 08:30:18;;;;;;;2.40;1.30;;;;;;;27.37;30.23;100158.28;4424963;32;34245;-73
2022/07/13 08:33:02;;;;;;;2.42;1.27;;;;;;;27.27;30.31;100159.31;4424924;32;35204;-73
2022/07/13 08:38:54;;;;;;;4.22;1.30;;;;;;;27.55;29.24;100161.03;4424727;32;32729;-73
2022/07/13 08:41:41;;;;;;;5.37;1.12;;;;;;;27.76;29.30;100153.06;4425997;32;34628;-73
2022/07/13 08:44:25;;;;;;;3.90;1.20;;;;;;;28.10;28.43;100144.16;4425571;32;34444;-73
2022/07/13 08:47:09;;;;;;;1.95;1.10;;;;;;;27.98;27.85;100145.84;4438325;32;34689;-73
2022/07/13 08:49:50;;;;;;;2.80;1.08;;;;;;;28.24;28.21;100141.38;4424886;32;33271;-73
2022/07/13 08:52:47;;;;;;;9.00;1.30;;;;;;;28.08;28.32;100148.47;4419829;32;33575;-73
2022/07/13 08:55:32;;;;;;;4.70;1.50;;;;;;;28.04;27.95;100150.22;4425485;32;35319;-77
2022/07/13 08:58:18;;;;;;;3.08;1.10;;;;;;;28.39;27.97;100131.72;4424463;32;34807;-72
2022/07/13 09:01:02;;;;;;;5.22;1.10;;;;;;;28.33;27.32;100145.13;4425149;32;33338;-73
2022/07/13 09:03:52;;;;;;;4.90;1.30;;;;;;;28.49;27.59;100132.34;4416869;32;34647;-73
2022/07/13 09:06:48;;;;;;;4.37;1.20;;;;;;;28.89;26.83;100135.37;4407990;32;34392;-73
2022/07/13 09:09:38;;;;;;;3.90;1.10;;;;;;;28.79;27.43;100127.09;4424646;32;34561;-73
2022/07/13 09:12:26;;;;;;;6.18;1.23;;;;;;;28.64;27.40;100133.13;4414238;32;31725;-73
2022/07/13 09:14:55;;;;;;;11.85;2.00;;;;;;;28.52;26.90;100131.72;4424643;32;34668;-73
2022/07/13 09:17:39;;;;;;;3.78;1.60;;;;;;;28.47;27.47;100126.19;4424397;32;34662;-73
2022/07/13 09:20:10;;;;;;;6.12;1.40;;;;;;;28.84;26.90;100113.72;4424742;32;34719;-73
2022/07/13 09:22:56;;;;;;;2.92;1.02;;;;;;;29.01;26.97;100112.19;4424399;32;33864;-73
2022/07/13 09:25:32;;;;;;;10.30;1.10;;;;;;;29.18;26.46;100115.97;4411765;32;32340;-73
2022/07/13 09:28:09;;;;;;;5.72;1.42;;;;;;;29.30;26.15;100118.19;4438170;32;34178;-73
2022/07/13 09:30:40;;;;;;;3.83;1.12;;;;;;;29.52;25.48;100117.34;4424484;32;33857;-74
2022/07/13 09:33:10;;;;;;;4.32;1.40;;;;;;;29.27;25.13;100118.00;4411504;32;31745;-73
2022/07/13 09:35:49;;;;;;;3.42;0.90;;;;;;;29.44;25.44;100121.81;4424215;32;33743;-73
2022/07/13 09:38:35;;;;;;;4.57;1.17;;;;;;;29.57;25.08;100108.72;4411478;32;33053;-74
2022/07/13 09:41:19;;;;;;;4.35;1.10;;;;;;;29.59;25.24;100114.91;4411566;32;32420;-73
2022/07/13 09:47:04;;;;;;;2.62;1.00;;;;;;;29.37;25.59;100132.69;4437586;32;33883;-73
2022/07/13 09:49:58;;;;;;;3.35;0.93;;;;;;;29.55;24.25;100128.00;4424330;32;35194;-74
2022/07/13 09:52:45;;;;;;;2.25;1.00;;;;;;;29.57;23.98;100122.03;4437666;32;34768;-73
2022/07/13 09:55:33;;;;;;;1.45;0.88;;;;;;;30.05;24.42;100114.44;4437454;32;33311;-74
2022/07/13 09:58:22;;;;;;;3.28;0.80;;;;;;;29.96;24.02;100136.16;4423795;32;33718;-73
2022/07/13 10:01:11;;;;;;;4.22;1.17;;;;;;;29.58;24.01;100121.72;4428228;32;33092;-73
2022/07/13 10:03:59;;;;;;;3.17;1.02;;;;;;;30.24;24.05;100111.31;4441120;32;34721;-73
2022/07/13 10:06:44;;;;;;;2.70;0.95;;;;;;;30.52;23.09;100111.03;4429398;32;33985;-73
2022/07/13 10:09:38;;;;;;;2.10;0.90;;;;;;;30.50;22.62;100111.37;4441959;32;33830;-73
2022/07/13 10:12:27;;;;;;;2.75;1.10;;;;;;;30.98;23.43;100122.56;4432019;32;34146;-73
2022/07/13 10:15:15;;;;;;;4.80;1.10;;;;;;;31.13;21.95;100101.41;4446425;32;34244;-75
2022/07/13 10:18:04;;;;;;;4.80;1.15;;;;;;;31.32;23.54;100101.00;4455122;32;33148;-77
2022/07/13 10:20:51;;;;;;;4.20;1.00;;;;;;;31.61;23.53;100106.75;4429066;32;33444;-80
2022/07/13 10:23:36;;;;;;;1.65;0.90;;;;;;;30.99;22.47;100107.22;4442951;32;35225;-73
2022/07/13 10:26:21;;;;;;;3.10;1.05;;;;;;;31.13;21.73;100107.06;4435115;32;32417;-73
2022/07/13 10:29:05;;;;;;;2.30;1.05;;;;;;;31.10;22.43;100113.38;4448583;32;33941;-73
2022/07/13 10:31:33;;;;;;;3.25;0.95;;;;;;;31.73;22.32;100092.72;4462458;32;33589;-73
2022/07/13 10:34:01;;;;;;;4.45;1.08;;;;;;;31.73;22.01;100083.38;4439946;32;32954;-76
2022/07/13 10:36:47;;;;;;;6.35;2.08;;;;;;;31.46;21.77;100112.97;4441331;32;33494;-75
2022/07/13 10:39:16;;;;;;;5.12;1.30;;;;;;;31.30;22.20;100103.34;4441468;32;33326;-76
2022/07/13 10:42:44;;;;;;;2.22;1.12;;;;;;;31.72;21.61;100093.91;4441426;32;34643;-79
2022/07/13 10:45:38;;;;;;;7.18;3.58;;;;;;;31.62;21.86;100094.22;4434257;32;33892;-78
2022/07/13 10:48:24;;;;;;;2.75;1.45;;;;;;;32.06;22.28;100083.50;4456296;32;33653;-78
2022/07/13 10:50:54;;;;;;;4.03;1.08;;;;;;;32.26;23.07;100081.94;4434278;32;31956;-79
2022/07/13 10:53:45;;;;;;;3.47;1.00;;;;;;;32.71;20.89;100077.22;4432517;32;32833;-78
2022/07/13 10:56:20;;;;;;;4.47;1.60;;;;;;;32.64;20.45;100079.78;4454991;32;34462;-78
2022/07/13 10:58:49;;;;;;;8.98;4.35;;;;;;;32.10;20.54;100082.47;4428399;32;34077;-79
2022/07/13 11:01:35;;;;;;;3.85;1.10;;;;;;;32.67;20.81;100084.75;4428549;32;33500;-75
2022/07/13 11:04:05;;;;;;;6.57;2.58;;;;;;;33.00;20.61;100072.62;4446594;32;33733;-77
2022/07/13 11:06:33;;;;;;;2.33;0.95;;;;;;;33.14;20.40;100078.84;4428387;32;35167;-78
2022/07/13 11:09:11;;;;;;;3.78;1.10;;;;;;;32.64;19.76;100079.78;4458258;32;34032;-77
2022/07/13 11:11:45;;;;;;;6.47;1.10;;;;;;;32.45;20.12;100107.03;4442618;32;31685;-78
2022/07/13 11:14:39;;;;;;;2.83;1.05;;;;;;;32.81;19.99;100087.34;4443425;32;33729;-78
2022/07/13 11:17:14;;;;;;;1.70;0.98;;;;;;;32.99;19.12;100077.50;4470517;32;34095;-77
2022/07/13 11:19:48;;;;;;;2.95;1.23;;;;;;;33.08;18.88;100068.03;4439497;32;33739;-77
2022/07/13 11:22:16;;;;;;;4.85;1.52;;;;;;;33.04;18.89;100060.22;4454775;32;33264;-78
2022/07/13 11:25:19;;;;;;;5.00;0.90;;;;;;;32.44;18.89;100071.28;4454730;32;33985;-75
2022/07/13 11:27:59;;;;;;;1.62;0.80;;;;;;;32.61;17.95;100076.78;4441195;32;33003;-77
2022/07/13 11:30:29;;;;;;;2.62;0.90;;;;;;;32.31;18.75;100062.66;4456187;32;34796;-77
2022/07/13 11:32:57;;;;;;;6.93;2.62;;;;;;;33.01;18.74;100052.38;4420948;32;31932;-78
2022/07/13 11:35:24;;;;;;;2.28;0.82;;;;;;;33.21;18.35;100064.84;4428397;32;33782;-78
2022/07/13 11:37:53;;;;;;;4.72;0.93;;;;;;;33.09;17.50;100070.53;4428036;32;34182;-78
2022/07/13 11:40:32;;;;;;;5.25;1.00;;;;;;;32.87;17.08;100060.38;4441185;32;33727;-77
2022/07/13 11:43:01;;;;;;;1.15;0.70;;;;;;;32.90;17.35;100044.63;4441038;32;33512;-78
2022/07/13 11:45:30;;;;;;;2.72;1.02;;;;;;;33.03;17.64;100050.00;4454708;32;33853;-73
2022/07/13 11:48:00;;;;;;;1.83;0.90;;;;;;;33.40;17.82;100035.88;4454193;32;34470;-77
2022/07/13 11:50:38;;;;;;;1.50;0.85;;;;;;;33.54;17.56;100039.22;4454121;32;33783;-77
2022/07/13 11:53:06;;;;;;;3.05;0.80;;;;;;;33.42;17.19;100030.69;4454929;32;31925;-78
2022/07/13 11:55:35;;;;;;;3.50;0.88;;;;;;;32.93;17.47;100052.47;4454425;32;33720;-80
2022/07/13 11:58:31;;;;;;;1.58;0.77;;;;;;;32.96;18.08;100032.69;4441984;32;34226;-76
2022/07/13 12:01:15;;;;;;;;;;;;;;;32.46;17.47;100038.50;4469612;32;34911;-77
2022/07/13 12:04:05;;;;;;;3.62;0.70;;;;;;;33.06;17.46;100037.94;4456037;32;32639;-78
2022/07/13 12:06:53;;;;;;;5.97;1.02;;;;;;;32.42;16.45;100046.87;4456151;32;34578;-77
2022/07/13 12:10:05;;;;;;;3.45;0.82;;;;;;;32.79;16.66;100032.84;4442132;32;34106;-78
2022/07/13 12:12:56;;;;;;;3.00;0.70;;;;;;;33.45;17.15;100035.66;4452961;32;33981;-76
2022/07/13 12:15:52;;;;;;;3.47;0.73;;;;;;;33.24;16.56;100047.09;4440546;32;31677;-77
2022/07/13 12:18:53;;;;;;;6.05;0.90;;;;;;;33.57;16.29;100029.97;4428704;32;33994;-78
2022/07/13 12:21:42;;;;;;;4.83;0.90;;;;;;;33.66;16.01;100021.34;4442448;32;33011;-80
2022/07/13 12:24:35;;;;;;;3.25;0.85;;;;;;;33.71;16.85;100032.47;4429339;32;33851;-79
2022/07/13 12:27:47;;;;;;;4.50;0.80;;;;;;;32.85;16.57;100036.31;4460779;32;33319;-79
2022/07/13 12:30:37;;;;;;;2.95;1.02;;;;;;;33.80;16.07;100032.41;4439365;32;33619;-80
2022/07/13 12:33:28;;;;;;;4.28;0.82;;;;;;;33.88;16.17;100017.19;4457227;32;34373;-76
2022/07/13 12:36:06;;;;;;;1.37;0.75;;;;;;;33.11;15.50;100030.37;4455568;32;32615;-79
2022/07/13 12:38:34;;;;;;;1.77;0.85;;;;;;;33.36;15.84;100035.75;4470084;32;34165;-79
2022/07/13 12:41:03;;;;;;;1.90;0.65;;;;;;;33.26;16.07;100046.72;4440049;32;96508;-79
2022/07/13 12:43:31;;;;;;;4.70;0.88;;;;;;;33.54;16.14;100024.16;4443072;32;33552;-79
2022/07/13 12:46:01;;;;;;;3.10;0.75;;;;;;;33.55;16.50;100023.81;4443023;32;33913;-77
2022/07/13 12:48:33;;;;;;;6.28;0.85;;;;;;;33.38;17.02;100033.41;4442884;32;31907;-79
2022/07/13 12:51:05;;;;;;;3.00;1.00;;;;;;;33.33;16.69;100008.00;4442741;32;33500;-79
2022/07/13 12:53:54;;;;;;;5.50;1.10;;;;;;;33.74;16.22;99999.63;4442947;32;34780;-79
2022/07/13 12:56:23;;;;;;;4.12;0.60;;;;;;;33.36;16.21;100017.84;4455423;32;33813;-79
2022/07/13 12:58:52;;;;;;;3.97;0.90;;;;;;;33.63;16.91;100028.56;4442991;32;33952;-80
2022/07/13 13:01:34;;;;;;;1.67;0.80;;;;;;;33.38;16.42;100018.34;4455637;32;34413;-80
2022/07/13 13:04:04;;;;;;;2.97;0.90;;;;;;;33.30;16.22;100007.88;4441639;32;31782;-80
2022/07/13 13:06:36;;;;;;;3.22;0.82;;;;;;;33.42;16.35;100016.44;4442718;32;33791;-79
2022/07/13 13:09:17;;;;;;;4.82;0.90;;;;;;;33.26;16.56;100004.88;4455913;32;33323;-81
2022/07/13 13:11:46;;;;;;;2.53;0.50;;;;;;;33.61;15.87;100008.16;4455348;32;34544;-79
2022/07/13 13:14:15;;;;;;;3.58;0.90;;;;;;;33.39;15.88;100009.44;4455189;32;33000;-79
2022/07/13 13:16:44;;;;;;;4.70;0.90;;;;;;;33.43;15.61;100001.03;4455342;32;34634;-80
2022/07/13 13:19:12;;;;;;;4.53;1.35;;;;;;;33.18;16.45;100020.03;4442502;32;34194;-79
2022/07/13 13:21:40;;;;;;;6.60;0.80;;;;;;;33.13;17.19;100000.37;4442789;32;34685;-79
2022/07/13 13:24:09;;;;;;;2.03;0.80;;;;;;;33.30;17.14;100007.88;4455092;32;35286;-79
2022/07/13 13:26:44;;;;;;;3.50;1.00;;;;;;;32.97;16.27;99988.84;4455319;32;34807;-79
2022/07/13 13:32:24;;;;;;;2.80;0.82;;;;;;;32.71;16.67;99991.94;4443225;32;33838;-78
2022/07/13 13:35:09;;;;;;;2.08;0.70;;;;;;;32.99;16.32;99986.47;4442907;32;34123;-80
2022/07/13 13:38:07;;;;;;;5.32;0.80;;;;;;;32.62;16.53;99987.50;4457553;32;32715;-80
2022/07/13 13:41:00;;;;;;;3.22;0.80;;;;;;;32.10;17.54;99988.78;4458149;32;34584;-80
2022/07/13 13:43:56;;;;;;;4.62;1.00;;;;;;;32.17;18.11;99976.03;4444656;32;33376;-80
2022/07/13 13:46:46;;;;;;;3.83;0.80;;;;;;;32.26;17.96;99966.28;4444124;32;33112;-80
2022/07/13 13:49:42;;;;;;;4.57;1.00;;;;;;;32.46;17.88;99970.31;4470989;32;34640;-80
2022/07/13 13:52:30;;;;;;;3.30;0.85;;;;;;;32.22;18.03;99973.84;4457980;32;33117;-80
2022/07/13 13:55:27;;;;;;;4.43;0.95;;;;;;;32.18;18.71;99978.53;4433567;32;33220;-79
2022/07/13 13:58:14;;;;;;;5.47;1.00;;;;;;;32.51;17.76;99960.69;4458209;32;34589;-80
2022/07/13 14:01:06;;;;;;;3.00;0.85;;;;;;;32.40;17.72;99972.53;4459614;32;34212;-79
2022/07/13 14:03:56;;;;;;;3.03;0.90;;;;;;;32.36;17.70;99965.88;4458649;32;33474;-80
2022/07/13 14:06:36;;;;;;;6.87;1.00;;;;;;;32.07;18.18;99965.91;4445449;32;33345;-79
2022/07/13 14:09:03;;;;;;;2.55;0.77;;;;;;;32.66;18.12;99965.72;4457571;32;35115;-79
2022/07/13 14:11:31;;;;;;;1.70;0.70;;;;;;;32.29;18.12;99956.25;4444297;32;34686;-79
2022/07/13 14:13:59;;;;;;;2.40;0.95;;;;;;;32.56;18.12;99937.75;4457141;32;33223;-80
2022/07/13 14:16:26;;;;;;;5.05;1.12;;;;;;;32.36;18.68;99943.13;4457066;32;33629;-79
2022/07/13 14:18:54;;;;;;;2.00;0.80;;;;;;;32.41;18.25;99942.09;4456950;32;34452;-79
2022/07/13 14:21:22;;;;;;;5.28;1.00;;;;;;;32.33;18.31;99949.53;4444603;32;33930;-79
2022/07/13 14:23:50;;;;;;;2.30;0.90;;;;;;;32.69;18.19;99943.13;4457060;32;33550;-79
2022/07/13 14:27:00;;;;;;;2.10;0.70;;;;;;;32.60;18.69;99950.06;4446114;32;32231;-79
2022/07/13 14:29:51;;;;;;;3.90;1.20;;;;;;;32.38;18.68;99932.25;4445280;32;34248;-80
2022/07/13 14:32:37;;;;;;;5.37;0.98;;;;;;;32.44;18.21;99932.03;4471103;32;33894;-79
2022/07/13 14:35:28;;;;;;;1.92;0.98;;;;;;;32.02;18.66;99935.72;4445642;32;33460;-78
2022/07/13 14:38:17;;;;;;;1.85;0.93;;;;;;;31.89;18.60;99924.63;4444220;32;33315;-73
2022/07/13 14:41:25;;;;;;;6.18;0.90;;;;;;;31.94;18.72;99918.75;4470936;32;34506;-78
2022/07/13 14:44:13;;;;;;;4.93;1.42;;;;;;;32.17;18.27;99913.53;4457984;32;34092;-79
2022/07/13 14:47:11;;;;;;;2.08;0.77;;;;;;;32.53;17.94;99910.84;4457809;32;33538;-78
2022/07/13 14:50:08;;;;;;;2.03;0.75;;;;;;;32.40;17.75;99906.34;4446435;32;34377;-78
2022/07/13 14:53:19;;;;;;;3.22;1.10;;;;;;;32.41;18.10;99919.38;4446230;32;33083;-78
2022/07/13 14:56:09;;;;;;;4.03;0.80;;;;;;;32.44;18.17;99912.16;4444660;32;36200;-79
2022/07/13 14:58:54;;;;;;;3.17;0.90;;;;;;;32.41;17.39;99919.38;4456432;32;31500;-78
2022/07/13 15:01:46;;;;;;;3.58;0.82;;;;;;;32.00;17.37;99920.19;4444816;32;34446;-79
2022/07/13 15:04:43;;;;;;;1.83;0.80;;;;;;;32.02;17.94;99913.00;4445401;32;34009;-78
2022/07/13 15:07:41;;;;;;;1.55;0.73;;;;;;;32.08;18.12;99911.59;4443906;32;33893;-78
2022/07/13 15:10:33;;;;;;;3.10;1.00;;;;;;;31.46;18.00;99917.22;4458457;32;33340;-79
2022/07/13 15:13:20;;;;;;;1.58;0.77;;;;;;;31.99;18.09;99907.19;4444670;32;33184;-78
2022/07/13 15:16:03;;;;;;;2.70;1.00;;;;;;;32.12;17.55;99911.75;4457276;32;34360;-79
2022/07/13 15:18:55;;;;;;;1.83;0.80;;;;;;;32.05;17.77;99894.44;4439529;32;33708;-78
2022/07/13 15:21:48;;;;;;;1.33;0.70;;;;;;;31.92;17.23;99916.25;4454217;32;32596;-78
2022/07/13 15:24:41;;;;;;;1.37;0.68;;;;;;;31.85;17.09;99900.97;4470214;32;34619;-78
2022/07/13 15:27:34;;;;;;;3.28;0.90;;;;;;;31.57;17.51;99901.47;4470510;32;34140;-78
2022/07/13 15:30:28;;;;;;;1.40;0.70;;;;;;;31.73;17.82;99911.06;4445097;32;34834;-77
2022/07/13 15:33:24;;;;;;;2.05;0.70;;;;;;;31.53;17.47;99903.31;4458056;32;33408;-77
2022/07/13 15:36:26;;;;;;;1.87;0.80;;;;;;;31.29;17.77;99909.63;4469426;32;33753;-77
2022/07/13 15:39:14;;;;;;;2.65;0.80;;;;;;;31.69;17.45;99907.25;4455734;32;35345;-77
2022/07/13 15:42:16;;;;;;;2.10;0.80;;;;;;;31.88;17.66;99898.25;4443698;32;32573;-77
2022/07/13 15:45:09;;;;;;;3.40;0.70;;;;;;;31.69;17.50;99893.06;4470151;32;32277;-77
2022/07/13 15:47:56;;;;;;;4.57;0.90;;;;;;;31.51;17.93;99902.00;4442240;32;32305;-77
2022/07/13 15:50:45;;;;;;;6.18;1.30;;;;;;;31.68;17.96;99894.25;4455881;32;34624;-77
2022/07/13 15:53:38;;;;;;;4.28;1.02;;;;;;;31.89;18.11;99893.41;4444791;32;34637;-77
2022/07/13 15:56:32;;;;;;;2.72;0.88;;;;;;;31.85;17.89;99886.78;4442009;32;32875;-76
2022/07/13 15:59:05;;;;;;;2.10;0.80;;;;;;;31.82;18.34;99887.47;4453501;32;33189;-77
2022/07/13 16:01:33;;;;;;;2.92;0.80;;;;;;;31.58;17.37;99885.28;4455645;32;34658;-78
2022/07/13 16:04:06;;;;;;;1.70;0.70;;;;;;;31.45;17.54;99888.03;4443587;32;34580;-77
2022/07/13 16:06:33;;;;;;;4.65;1.30;;;;;;;31.55;17.57;99891.63;4470250;32;33351;-77
2022/07/13 16:09:26;;;;;;;1.87;0.70;;;;;;;31.33;18.36;99885.09;4469896;32;34419;-77
2022/07/13 16:12:12;;;;;;;2.00;0.70;;;;;;;31.73;17.77;99877.00;4469765;32;34421;-77
2022/07/13 16:15:05;;;;;;;2.92;1.10;;;;;;;31.60;17.77;99878.06;4469728;32;33908;-76
2022/07/13 16:17:55;;;;;;;5.43;2.37;;;;;;;31.38;17.69;99881.22;4431062;32;32807;-77
2022/07/13 16:20:51;;;;;;;2.80;0.82;;;;;;;31.41;18.13;99884.22;4457202;32;34401;-73
2022/07/13 16:23:42;;;;;;;4.35;1.90;;;;;;;31.22;18.22;99889.50;4443735;32;33639;-76
2022/07/13 16:26:32;;;;;;;3.15;1.40;;;;;;;31.23;18.74;99887.47;4457239;32;33998;-75
2022/07/13 16:29:32;;;;;;;4.45;1.08;;;;;;;31.39;18.54;99894.22;4420665;32;32141;-75
2022/07/13 16:32:19;;;;;;;6.53;0.90;;;;;;;31.25;18.39;99883.12;4443285;32;32270;-75
2022/07/13 16:35:09;;;;;;;1.92;0.88;;;;;;;31.45;18.05;99881.50;4462465;32;34699;-75
2022/07/13 16:38:11;;;;;;;3.67;0.98;;;;;;;31.45;18.43;99885.19;4449493;32;34042;-75
2022/07/13 16:41:10;;;;;;;2.67;1.00;;;;;;;31.38;18.66;99881.22;4441279;32;33199;-75
2022/07/13 16:44:07;;;;;;;2.50;1.00;;;;;;;31.16;18.84;99890.06;4469559;32;32180;-75
2022/07/13 16:46:57;;;;;;;3.90;0.90;;;;;;;30.99;18.92;99882.41;4418514;32;33378;-75
2022/07/13 16:49:48;;;;;;;4.60;1.58;;;;;;;31.30;18.98;99882.09;4441227;32;33885;-75
2022/07/13 16:52:43;;;;;;;1.97;1.00;;;;;;;31.12;18.94;99876.53;4428329;32;31767;-75
2022/07/13 16:55:34;;;;;;;2.17;1.00;;;;;;;31.21;18.83;99884.16;4440758;32;33850;-75
2022/07/13 16:58:21;;;;;;;6.07;1.02;;;;;;;31.07;19.25;99882.38;4427417;32;33293;-75
2022/07/13 17:01:14;;;;;;;5.60;1.02;;;;;;;31.15;18.67;99879.87;4439799;32;34197;-75
2022/07/13 17:04:09;;;;;;;6.07;1.20;;;;;;;30.98;18.91;99883.59;4453709;32;34068;-75
2022/07/13 17:06:58;;;;;;;4.60;0.88;;;;;;;31.03;18.63;99883.41;4415309;32;32199;-75
2022/07/13 17:09:53;;;;;;;2.47;1.05;;;;;;;31.01;18.94;99878.06;4439217;32;33051;-75
2022/07/13 17:12:50;;;;;;;2.65;1.10;;;;;;;30.96;19.17;99878.25;4430677;32;32569;-75
2022/07/13 17:15:41;;;;;;;1.85;0.85;;;;;;;31.05;18.73;99879.06;4455659;32;33122;-75
2022/07/13 17:21:20;;;;;;;1.67;0.80;;;;;;;31.03;18.99;99878.56;4431215;32;32541;-75
2022/07/13 17:23:48;;;;;;;2.12;0.62;;;;;;;30.88;18.75;99893.31;4449876;32;33893;-75
2022/07/13 17:26:15;;;;;;;3.37;1.00;;;;;;;30.73;18.79;99885.34;4456854;32;33389;-74
2022/07/13 17:28:42;;;;;;;3.58;1.15;;;;;;;31.00;18.84;99878.41;4444281;32;33907;-73
2022/07/13 17:31:10;;;;;;;4.30;1.10;;;;;;;30.89;19.24;99885.63;4444177;32;33876;-74
2022/07/13 17:33:38;;;;;;;2.70;1.20;;;;;;;30.47;19.11;99883.41;4444070;32;32521;-74
2022/07/13 17:36:08;;;;;;;1.17;0.73;;;;;;;30.41;19.18;99884.75;4443962;32;31734;-73
2022/07/13 17:38:36;;;;;;;1.80;0.80;;;;;;;30.64;19.09;99876.88;4456676;32;34064;-73
2022/07/13 17:41:04;;;;;;;2.78;1.00;;;;;;;30.73;19.07;99882.53;4457166;32;35238;-73
2022/07/13 17:43:31;;;;;;;3.78;1.10;;;;;;;30.84;19.30;99878.16;4444520;32;32368;-73
2022/07/13 17:46:00;;;;;;;4.57;0.88;;;;;;;30.85;19.70;99876.16;4441683;32;33019;-74
2022/07/13 17:48:29;;;;;;;2.67;1.23;;;;;;;30.74;19.25;99870.00;4470339;32;33614;-75
2022/07/13 17:50:56;;;;;;;4.32;0.80;;;;;;;30.84;19.58;99872.47;4444094;32;35292;-75
2022/07/13 17:53:24;;;;;;;2.30;1.00;;;;;;;30.50;19.61;99878.25;4457009;32;34004;-75
2022/07/13 17:55:53;;;;;;;4.40;1.10;;;;;;;30.65;19.52;99877.72;4456613;32;33226;-75
2022/07/13 17:58:21;;;;;;;2.10;0.80;;;;;;;30.91;19.57;99886.13;4444732;32;33857;-74
2022/07/13 18:00:51;;;;;;;4.97;0.98;;;;;;;30.80;19.60;99882.84;4444258;32;34425;-74
2022/07/13 18:03:20;;;;;;;2.28;1.02;;;;;;;30.90;19.73;99882.47;4437227;32;34252;-75
2022/07/13 18:05:48;;;;;;;1.92;0.88;;;;;;;30.66;19.69;99885.03;4447401;32;33353;-75
2022/07/13 18:08:16;;;;;;;3.20;1.00;;;;;;;30.59;19.67;99884.72;4454950;32;33819;-75
2022/07/13 18:10:43;;;;;;;4.55;0.93;;;;;;;30.68;19.39;99888.38;4455458;32;34061;-75
2022/07/13 18:13:11;;;;;;;4.05;1.50;;;;;;;30.65;19.51;99889.03;4454743;32;34735;-75
2022/07/13 18:15:55;;;;;;;2.25;0.80;;;;;;;30.74;19.75;99889.84;4454888;32;34073;-74
2022/07/13 18:18:45;;;;;;;2.75;0.98;;;;;;;30.62;19.70;99886.87;4442576;32;34083;-75
2022/07/13 18:21:46;;;;;;;1.95;0.70;;;;;;;30.61;19.76;99882.38;4454368;32;34539;-74
2022/07/13 18:24:35;;;;;;;6.72;0.90;;;;;;;30.30;19.86;99891.94;4440664;32;32482;-75
2022/07/13 18:27:28;;;;;;;3.55;0.90;;;;;;;30.44;19.86;99883.25;4444654;32;33340;-74
2022/07/13 18:30:21;;;;;;;4.37;1.00;;;;;;;30.30;20.06;99897.59;4470713;32;33673;-74
2022/07/13 18:33:14;;;;;;;2.08;0.80;;;;;;;30.33;20.31;99893.28;4458280;32;34479;-74
2022/07/13 18:36:04;;;;;;;2.97;1.00;;;;;;;30.29;20.42;99893.09;4470601;32;34723;-74
2022/07/13 18:39:02;;;;;;;3.40;0.95;;;;;;;30.32;20.33;99898.09;4470817;32;33105;-74
2022/07/13 18:41:52;;;;;;;1.77;0.80;;;;;;;30.05;20.84;99901.28;4457400;32;34949;-75
2022/07/13 18:44:43;;;;;;;5.95;1.00;;;;;;;30.09;20.71;99899.47;4470454;32;34376;-74